Time,TemperatureF,DewpointF,PressureIn,WindDirection,WindDirectionDegrees,WindSpeedMPH,WindSpeedGustMPH,Humidity,HourlyPrecipIn,Conditions,Clouds,dailyrainin,SoftwareType,DateUTC
2013-11-17 00:00:00,51.1,49.7,30.22,NNE,28,0.0,0.0,95,0.00,,,0.00,Wunderground v.1.12,2013-11-17 05:00:00,
2013-11-17 00:10:00,51.1,49.7,30.21,NNE,28,0.0,0.0,95,0.00,,,0.00,Wunderground v.1.12,2013-11-17 05:10:00,
2013-11-17 00:20:00,51.3,49.9,30.20,NNE,28,0.0,0.0,95,0.00,,,0.00,Wunderground v.1.12,2013-11-17 05:20:00,
2013-11-17 00:30:00,51.3,49.9,30.20,NNE,28,0.0,0.0,95,0.00,,,0.00,Wunderground v.1.12,2013-11-17 05:30:00,
2013-11-17 00:40:00,51.3,49.9,30.20,NNE,28,0.0,0.0,95,0.00,,,0.00,Wunderground v.1.12,2013-11-17 05:40:00,
2013-11-17 00:50:00,51.1,49.7,30.20,NNE,28,0.0,0.0,95,0.00,,,0.00,Wunderground v.1.12,2013-11-17 05:50:00,
2013-11-17 01:00:00,51.1,49.7,30.20,NNE,28,0.0,0.0,95,0.00,,,0.00,Wunderground v.1.12,2013-11-17 06:00:00,
2013-11-17 01:10:00,51.1,49.7,30.19,NNE,28,0.0,0.0,95,0.00,,,0.00,Wunderground v.1.12,2013-11-17 06:10:00,
2013-11-17 01:20:00,51.1,49.7,30.20,N/A,-737280,0.0,0.0,95,0.00,,,0.00,Wunderground v.1.12,2013-11-17 06:20:00,
2013-11-17 01:30:00,51.3,49.9,30.20,N/A,-737280,0.0,0.0,95,0.00,,,0.00,Wunderground v.1.12,2013-11-17 06:30:00,
2013-11-17 01:40:00,50.8,49.4,30.18,NNE,28,0.0,0.0,95,0.00,,,0.00,Wunderground v.1.12,2013-11-17 06:40:00,
2013-11-17 01:50:00,51.3,49.9,30.20,N/A,-737280,0.0,0.0,95,0.00,,,0.00,Wunderground v.1.12,2013-11-17 06:50:00,
2013-11-17 02:00:00,51.1,49.7,30.20,NNE,28,0.0,0.0,95,0.00,,,0.00,Wunderground v.1.12,2013-11-17 07:00:00,
2013-11-17 02:10:00,51.3,49.9,30.19,NNE,28,0.0,0.0,95,0.00,,,0.00,Wunderground v.1.12,2013-11-17 07:10:00,
2013-11-17 02:20:00,51.3,49.9,30.19,NNE,28,0.0,0.0,95,0.00,,,0.00,Wunderground v.1.12,2013-11-17 07:20:00,
2013-11-17 02:30:00,51.3,49.9,30.19,NNE,28,0.0,0.0,95,0.00,,,0.00,Wunderground v.1.12,2013-11-17 07:30:00,
2013-11-17 02:40:00,51.3,49.9,30.18,NNE,28,0.0,0.0,95,0.00,,,0.00,Wunderground v.1.12,2013-11-17 07:40:00,
2013-11-17 02:50:00,51.3,49.9,30.17,NNE,28,0.0,0.0,95,0.00,,,0.00,Wunderground v.1.12,2013-11-17 07:50:00,
2013-11-17 03:00:00,51.3,49.9,30.17,NNE,28,0.0,0.0,95,0.00,,,0.00,Wunderground v.1.12,2013-11-17 08:00:00,
2013-11-17 03:10:00,51.3,49.9,30.16,NNE,28,0.0,1.0,95,0.00,,,0.00,Wunderground v.1.12,2013-11-17 08:10:00,
2013-11-17 03:20:00,51.3,49.9,30.16,NNE,28,0.0,1.0,95,0.00,,,0.00,Wunderground v.1.12,2013-11-17 08:20:00,
2013-11-17 03:30:00,51.3,49.9,30.16,NNE,28,0.0,1.0,95,0.00,,,0.00,Wunderground v.1.12,2013-11-17 08:30:00,
2013-11-17 03:40:00,51.0,49.6,30.15,NNE,28,0.0,1.0,95,0.00,,,0.00,Wunderground v.1.12,2013-11-17 08:40:00,
2013-11-17 03:50:00,50.8,49.4,30.14,NNE,28,0.0,1.0,95,0.00,,,0.00,Wunderground v.1.12,2013-11-17 08:50:00,
2013-11-17 04:00:00,50.7,49.3,30.14,NNE,28,0.0,1.0,95,0.00,,,0.00,Wunderground v.1.12,2013-11-17 09:00:00,
2013-11-17 04:10:00,50.5,49.1,30.15,NNE,28,0.0,1.0,95,0.00,,,0.00,Wunderground v.1.12,2013-11-17 09:10:00,
2013-11-17 04:20:00,50.5,49.1,30.15,NNE,28,0.0,1.0,95,0.00,,,0.00,Wunderground v.1.12,2013-11-17 09:20:00,
2013-11-17 04:30:00,50.5,49.4,30.15,NNE,28,0.0,1.0,96,0.00,,,0.00,Wunderground v.1.12,2013-11-17 09:30:00,
2013-11-17 04:40:00,50.5,49.4,30.14,NNE,28,0.0,1.0,96,0.00,,,0.00,Wunderground v.1.12,2013-11-17 09:40:00,
2013-11-17 04:50:00,50.7,49.6,30.16,NNE,28,0.0,1.0,96,0.00,,,0.00,Wunderground v.1.12,2013-11-17 09:50:00,
2013-11-17 05:00:00,50.7,49.6,30.16,NNE,28,0.0,1.0,96,0.00,,,0.00,Wunderground v.1.12,2013-11-17 10:00:00,
2013-11-17 05:10:00,50.8,49.7,30.15,NNE,28,0.0,1.0,96,0.00,,,0.00,Wunderground v.1.12,2013-11-17 10:10:00,
2013-11-17 05:20:00,50.8,49.7,30.14,NNE,28,0.0,1.0,96,0.00,,,0.00,Wunderground v.1.12,2013-11-17 10:20:00,
2013-11-17 05:30:00,50.7,49.6,30.14,NNE,28,0.0,1.0,96,0.00,,,0.00,Wunderground v.1.12,2013-11-17 10:30:00,
2013-11-17 05:40:00,50.5,49.4,30.14,NNE,28,0.0,1.0,96,0.00,,,0.00,Wunderground v.1.12,2013-11-17 10:40:00,
2013-11-17 05:50:00,50.4,49.3,30.14,NNE,28,0.0,1.0,96,0.00,,,0.00,Wunderground v.1.12,2013-11-17 10:50:00,
2013-11-17 06:00:00,50.5,49.4,30.14,NNE,28,0.0,1.0,96,0.00,,,0.00,Wunderground v.1.12,2013-11-17 11:00:00,
2013-11-17 06:10:00,50.5,49.4,30.13,NNE,28,0.0,0.0,96,0.00,,,0.00,Wunderground v.1.12,2013-11-17 11:10:00,
2013-11-17 06:20:00,50.5,49.4,30.13,NNE,28,0.0,0.0,96,0.00,,,0.00,Wunderground v.1.12,2013-11-17 11:20:00,
2013-11-17 06:30:00,50.7,49.6,30.14,NNE,23,0.0,1.0,96,0.00,,,0.00,Wunderground v.1.12,2013-11-17 11:30:00,
2013-11-17 06:40:00,50.4,49.3,30.14,N/A,-737280,0.0,0.0,96,0.00,,,0.00,Wunderground v.1.12,2013-11-17 11:40:00,
2013-11-17 06:50:00,50.4,49.3,30.14,N/A,-737280,0.0,0.0,96,0.00,,,0.00,Wunderground v.1.12,2013-11-17 11:50:00,
2013-11-17 07:00:00,-999.9,-99.9,30.11,North,32767,-999.0,0.0,255,-99.99,,,0.00,Wunderground v.1.12,2013-11-17 12:00:00,
2013-11-17 07:10:00,-999.9,-99.9,30.11,North,32767,-999.0,0.0,255,-99.99,,,0.00,Wunderground v.1.12,2013-11-17 12:10:00,
2013-11-17 07:20:00,-999.9,-99.9,30.11,North,32767,-999.0,0.0,255,-99.99,,,0.00,Wunderground v.1.12,2013-11-17 12:20:00,
2013-11-17 07:30:00,-999.9,-99.9,30.11,North,32767,-999.0,0.0,255,-99.99,,,0.00,Wunderground v.1.12,2013-11-17 12:30:00,
2013-11-17 07:40:00,-999.9,-99.9,30.13,North,32767,-999.0,0.0,255,-99.99,,,0.00,Wunderground v.1.12,2013-11-17 12:40:00,
2013-11-17 07:50:00,51.1,50.0,30.13,NNE,28,0.0,0.0,96,0.00,,,0.00,Wunderground v.1.12,2013-11-17 12:50:00,
2013-11-17 08:00:00,51.3,50.2,30.13,NNE,28,0.0,0.0,96,0.00,,,0.00,Wunderground v.1.12,2013-11-17 13:00:00,
2013-11-17 08:10:00,51.4,50.3,30.13,NNE,28,0.0,0.0,96,0.00,,,0.00,Wunderground v.1.12,2013-11-17 13:10:00,
2013-11-17 08:20:00,51.7,50.6,30.14,NNE,28,0.0,0.0,96,0.00,,,0.00,Wunderground v.1.12,2013-11-17 13:20:00,
2013-11-17 08:30:00,51.9,50.8,30.14,NNE,28,0.0,0.0,96,0.00,,,0.00,Wunderground v.1.12,2013-11-17 13:30:00,
2013-11-17 08:40:00,52.2,51.1,30.14,NNE,28,0.0,0.0,96,0.00,,,0.00,Wunderground v.1.12,2013-11-17 13:40:00,
2013-11-17 08:50:00,52.5,51.4,30.14,NNE,28,0.0,0.0,96,0.00,,,0.00,Wunderground v.1.12,2013-11-17 13:50:00,
2013-11-17 09:00:00,52.9,51.8,30.14,NNE,28,0.0,0.0,96,0.00,,,0.00,Wunderground v.1.12,2013-11-17 14:00:00,
2013-11-17 09:10:00,53.3,52.2,30.14,NNE,28,0.0,0.0,96,0.00,,,0.00,Wunderground v.1.12,2013-11-17 14:10:00,
2013-11-17 09:20:00,53.8,52.7,30.13,NNE,28,0.0,0.0,96,0.00,,,0.00,Wunderground v.1.12,2013-11-17 14:20:00,
2013-11-17 09:30:00,54.1,53.0,30.13,NNE,28,0.0,0.0,96,0.00,,,0.00,Wunderground v.1.12,2013-11-17 14:30:00,
2013-11-17 09:40:00,54.4,53.3,30.13,NNE,28,0.0,0.0,96,0.00,,,0.00,Wunderground v.1.12,2013-11-17 14:40:00,
2013-11-17 09:50:00,54.5,53.4,30.13,ESE,106,0.0,2.0,96,0.00,,,0.00,Wunderground v.1.12,2013-11-17 14:50:00,
2013-11-17 10:00:00,54.8,53.7,30.13,ESE,106,0.0,0.0,96,0.00,,,0.00,Wunderground v.1.12,2013-11-17 15:00:00,
2013-11-17 10:10:00,54.8,53.7,30.13,ESE,113,0.0,0.0,96,0.00,,,0.00,Wunderground v.1.12,2013-11-17 15:10:00,
2013-11-17 10:20:00,54.8,53.7,30.13,ESE,113,0.0,0.0,96,0.00,,,0.00,Wunderground v.1.12,2013-11-17 15:20:00,
2013-11-17 10:30:00,55.0,53.9,30.13,ESE,113,0.0,0.0,96,0.00,,,0.00,Wunderground v.1.12,2013-11-17 15:30:00,
2013-11-17 10:40:00,55.3,54.2,30.12,SE,146,0.0,0.0,96,0.00,,,0.00,Wunderground v.1.12,2013-11-17 15:40:00,
2013-11-17 10:50:00,55.6,54.5,30.11,SE,146,0.0,2.0,96,0.00,,,0.00,Wunderground v.1.12,2013-11-17 15:50:00,
2013-11-17 11:00:00,55.4,54.3,30.11,SE,146,0.0,1.0,96,0.00,,,0.00,Wunderground v.1.12,2013-11-17 16:00:00,
2013-11-17 11:10:00,55.7,54.6,30.11,SE,146,0.0,0.0,96,0.00,,,0.00,Wunderground v.1.12,2013-11-17 16:10:00,
2013-11-17 11:20:00,55.9,54.8,30.09,SE,146,0.0,0.0,96,0.00,,,0.00,Wunderground v.1.12,2013-11-17 16:20:00,
2013-11-17 11:30:00,55.1,54.0,30.12,ESE,113,0.0,2.0,96,0.00,,,0.00,Wunderground v.1.12,2013-11-17 16:30:00,
2013-11-17 11:40:00,56.5,55.4,30.08,SE,140,1.0,1.0,96,0.00,,,0.00,Wunderground v.1.12,2013-11-17 16:40:00,
2013-11-17 11:50:00,55.4,54.3,30.11,SE,135,0.0,4.0,96,0.00,,,0.00,Wunderground v.1.12,2013-11-17 16:50:00,
2013-11-17 12:00:00,55.4,54.3,30.11,SE,135,0.0,2.0,96,0.00,,,0.00,Wunderground v.1.12,2013-11-17 17:00:00,
2013-11-17 12:10:00,57.5,56.1,30.08,SSE,155,1.0,1.0,95,0.00,,,0.00,Wunderground v.1.12,2013-11-17 17:10:00,
2013-11-17 12:20:00,58.3,56.6,30.07,SE,146,0.0,0.0,94,0.00,,,0.00,Wunderground v.1.12,2013-11-17 17:20:00,
2013-11-17 12:30:00,59.0,56.7,30.07,SSE,152,0.0,0.0,92,0.00,,,0.00,Wunderground v.1.12,2013-11-17 17:30:00,
2013-11-17 12:40:00,59.3,55.7,30.06,NNE,16,1.0,1.0,88,0.00,,,0.00,Wunderground v.1.12,2013-11-17 17:40:00,
2013-11-17 12:50:00,59.5,55.6,30.05,NNE,20,0.0,0.0,87,0.00,,,0.00,Wunderground v.1.12,2013-11-17 17:50:00,
2013-11-17 13:00:00,59.2,54.7,30.05,SE,139,1.0,1.0,85,0.00,,,0.00,Wunderground v.1.12,2013-11-17 18:00:00,
2013-11-17 13:10:00,59.2,55.0,30.04,SE,126,1.0,1.0,86,0.00,,,0.00,Wunderground v.1.12,2013-11-17 18:10:00,
2013-11-17 13:20:00,59.5,54.3,30.02,South,173,0.0,2.0,83,0.00,,,0.00,Wunderground v.1.12,2013-11-17 18:20:00,
2013-11-17 13:30:00,59.8,54.3,30.02,ENE,68,0.0,2.0,82,0.00,,,0.00,Wunderground v.1.12,2013-11-17 18:30:00,
2013-11-17 13:40:00,60.1,53.9,30.02,ESE,118,1.0,2.0,80,0.00,,,0.00,Wunderground v.1.12,2013-11-17 18:40:00,
2013-11-17 13:50:00,59.8,53.6,30.02,SE,138,1.0,2.0,80,0.00,,,0.00,Wunderground v.1.12,2013-11-17 18:50:00,
2013-11-17 14:00:00,60.5,54.0,30.02,SSE,147,0.0,2.0,79,0.00,,,0.00,Wunderground v.1.12,2013-11-17 19:00:00,
2013-11-17 14:10:00,61.3,54.4,30.00,South,173,1.0,2.0,78,0.00,,,0.00,Wunderground v.1.12,2013-11-17 19:10:00,
2013-11-17 14:20:00,61.8,54.5,29.99,NE,36,0.0,2.0,77,0.00,,,0.00,Wunderground v.1.12,2013-11-17 19:20:00,
2013-11-17 14:30:00,62.1,54.8,29.99,SSE,158,0.0,2.0,77,0.00,,,0.00,Wunderground v.1.12,2013-11-17 19:30:00,
2013-11-17 14:40:00,62.4,55.1,29.99,SSE,168,0.0,2.0,77,0.00,,,0.00,Wunderground v.1.12,2013-11-17 19:40:00,
2013-11-17 14:50:00,62.4,55.1,29.99,SSE,168,0.0,2.0,77,0.00,,,0.00,Wunderground v.1.12,2013-11-17 19:50:00,
2013-11-17 15:00:00,62.3,55.0,29.99,SSE,168,0.0,2.0,77,0.00,,,0.00,Wunderground v.1.12,2013-11-17 20:00:00,
2013-11-17 15:10:00,62.0,54.7,29.97,SSE,168,0.0,2.0,77,0.00,,,0.00,Wunderground v.1.12,2013-11-17 20:10:00,
2013-11-17 15:20:00,61.5,54.6,29.97,SSE,168,0.0,2.0,78,0.00,,,0.00,Wunderground v.1.12,2013-11-17 20:20:00,
2013-11-17 15:30:00,61.2,54.3,29.97,SSE,168,0.0,2.0,78,0.00,,,0.00,Wunderground v.1.12,2013-11-17 20:30:00,
2013-11-17 15:40:00,60.7,54.1,29.95,SSE,168,0.0,2.0,79,0.00,,,0.00,Wunderground v.1.12,2013-11-17 20:40:00,
2013-11-17 15:50:00,60.1,53.9,29.95,SSE,167,0.0,2.0,80,0.00,,,0.00,Wunderground v.1.12,2013-11-17 20:50:00,
2013-11-17 16:00:00,59.5,54.0,29.95,SE,143,0.0,2.0,82,0.00,,,0.00,Wunderground v.1.12,2013-11-17 21:00:00,
2013-11-17 16:10:00,58.9,53.7,29.96,SE,130,0.0,1.0,83,0.00,,,0.00,Wunderground v.1.12,2013-11-17 21:10:00,
2013-11-17 16:20:00,61.6,54.3,29.97,SSE,158,0.0,2.0,77,0.00,,,0.00,Wunderground v.1.12,2013-11-17 21:20:00,
2013-11-17 16:30:00,58.3,53.5,29.95,SSE,155,0.0,0.0,84,0.00,,,0.00,Wunderground v.1.12,2013-11-17 21:30:00,
2013-11-17 16:40:00,60.2,54.0,29.95,SSE,158,0.0,4.0,80,0.00,,,0.00,Wunderground v.1.12,2013-11-17 21:40:00,
2013-11-17 16:50:00,60.2,54.0,29.95,SSE,158,0.0,4.0,80,0.00,,,0.00,Wunderground v.1.12,2013-11-17 21:50:00,
2013-11-17 17:00:00,58.0,53.8,29.94,SSE,155,0.0,0.0,86,0.00,,,0.00,Wunderground v.1.12,2013-11-17 22:00:00,
2013-11-17 17:10:00,58.0,53.8,29.94,SSE,155,0.0,0.0,86,0.00,,,0.00,Wunderground v.1.12,2013-11-17 22:10:00,
2013-11-17 17:20:00,58.0,53.8,29.95,SSE,155,0.0,0.0,86,0.00,,,0.00,Wunderground v.1.12,2013-11-17 22:20:00,
2013-11-17 17:30:00,58.0,54.2,29.95,SSE,155,0.0,0.0,87,0.00,,,0.00,Wunderground v.1.12,2013-11-17 22:30:00,
2013-11-17 17:40:00,58.0,54.2,29.94,SSE,155,0.0,0.0,87,0.00,,,0.00,Wunderground v.1.12,2013-11-17 22:40:00,
2013-11-17 17:50:00,58.0,54.5,29.94,SSE,151,1.0,2.0,88,0.00,,,0.00,Wunderground v.1.12,2013-11-17 22:50:00,
2013-11-17 18:00:00,58.0,54.5,29.94,SE,127,1.0,1.0,88,0.00,,,0.00,Wunderground v.1.12,2013-11-17 23:00:00,
2013-11-17 18:10:00,58.0,54.8,29.93,SE,143,1.0,1.0,89,0.00,,,0.00,Wunderground v.1.12,2013-11-17 23:10:00,
2013-11-17 18:20:00,58.1,55.2,29.92,SE,132,1.0,1.0,90,0.00,,,0.00,Wunderground v.1.12,2013-11-17 23:20:00,
2013-11-17 18:30:00,58.3,55.7,29.92,SE,140,1.0,4.0,91,0.00,,,0.00,Wunderground v.1.12,2013-11-17 23:30:00,
2013-11-17 18:40:00,58.6,56.0,29.92,SSE,159,1.0,4.0,91,0.00,,,0.00,Wunderground v.1.12,2013-11-17 23:40:00,
2013-11-17 18:50:00,58.6,56.3,29.91,ESE,122,1.0,1.0,92,0.00,,,0.00,Wunderground v.1.12,2013-11-17 23:50:00,
2013-11-17 19:00:00,58.4,56.1,29.91,South,179,1.0,1.0,92,0.00,,,0.00,Wunderground v.1.12,2013-11-18 00:00:00,
2013-11-17 19:10:00,58.3,56.0,29.90,SE,142,0.0,4.0,92,0.00,,,0.00,Wunderground v.1.12,2013-11-18 00:10:00,
2013-11-17 19:20:00,58.1,55.8,29.88,SE,136,1.0,1.0,92,0.00,,,0.00,Wunderground v.1.12,2013-11-18 00:20:00,
2013-11-17 19:30:00,58.0,55.7,29.88,SE,140,0.0,4.0,92,0.00,,,0.00,Wunderground v.1.12,2013-11-18 00:30:00,
2013-11-17 19:40:00,57.8,55.5,29.88,SE,140,0.0,4.0,92,0.00,,,0.00,Wunderground v.1.12,2013-11-18 00:40:00,
2013-11-17 19:50:00,57.8,55.5,29.88,SE,140,0.0,4.0,92,0.00,,,0.00,Wunderground v.1.12,2013-11-18 00:50:00,
2013-11-17 20:00:00,57.6,55.3,29.88,SE,140,0.0,4.0,92,0.00,,,0.00,Wunderground v.1.12,2013-11-18 01:00:00,
2013-11-17 20:10:00,57.6,55.3,29.87,SE,140,0.0,0.0,92,0.00,,,0.00,Wunderground v.1.12,2013-11-18 01:10:00,
2013-11-17 20:20:00,57.6,55.3,29.87,SE,140,0.0,2.0,92,0.00,,,0.00,Wunderground v.1.12,2013-11-18 01:20:00,
2013-11-17 20:30:00,57.8,55.5,29.88,SE,135,0.0,4.0,92,0.00,,,0.00,Wunderground v.1.12,2013-11-18 01:30:00,
2013-11-17 20:40:00,58.0,55.7,29.86,SE,145,1.0,1.0,92,0.00,,,0.00,Wunderground v.1.12,2013-11-18 01:40:00,
2013-11-17 20:50:00,57.8,55.5,29.85,SSE,154,1.0,1.0,92,0.00,,,0.00,Wunderground v.1.12,2013-11-18 01:50:00,
2013-11-17 20:59:00,57.6,55.3,29.85,ESE,121,1.0,1.0,92,0.00,,,0.00,Wunderground v.1.12,2013-11-18 01:59:00,
2013-11-17 21:10:00,57.5,55.2,29.85,SE,140,1.0,2.0,92,0.00,,,0.00,Wunderground v.1.12,2013-11-18 02:10:00,
2013-11-17 21:20:00,57.5,55.2,29.82,East,100,0.0,2.0,92,0.00,,,0.00,Wunderground v.1.12,2013-11-18 02:20:00,
2013-11-17 21:30:00,57.2,54.9,29.82,SSE,150,1.0,1.0,92,0.00,,,0.00,Wunderground v.1.12,2013-11-18 02:30:00,
2013-11-17 21:40:00,56.9,54.9,29.81,SSE,150,0.0,0.0,93,0.00,,,0.00,Wunderground v.1.12,2013-11-18 02:40:00,
2013-11-17 21:50:00,56.7,54.7,29.81,SSE,150,0.0,0.0,93,0.00,,,0.00,Wunderground v.1.12,2013-11-18 02:50:00,
2013-11-17 22:00:00,56.7,54.7,29.81,SSE,150,0.0,0.0,93,0.00,,,0.00,Wunderground v.1.12,2013-11-18 03:00:00,
2013-11-17 22:10:00,56.7,55.0,29.81,SSE,150,0.0,2.0,94,0.00,,,0.00,Wunderground v.1.12,2013-11-18 03:10:00,
2013-11-17 22:20:00,56.6,54.9,29.80,SSE,150,0.0,2.0,94,0.00,,,0.00,Wunderground v.1.12,2013-11-18 03:20:00,
2013-11-17 22:30:00,56.6,54.9,29.80,SSE,150,0.0,2.0,94,0.00,,,0.00,Wunderground v.1.12,2013-11-18 03:30:00,
2013-11-17 22:40:00,56.6,54.9,29.79,SSE,150,0.0,2.0,94,0.00,,,0.00,Wunderground v.1.12,2013-11-18 03:40:00,
2013-11-17 22:50:00,56.6,55.2,29.79,SSE,149,0.0,2.0,95,0.00,,,0.00,Wunderground v.1.12,2013-11-18 03:50:00,
2013-11-17 23:00:00,56.5,55.1,29.79,SE,142,1.0,2.0,95,0.00,,,0.00,Wunderground v.1.12,2013-11-18 04:00:00,
2013-11-17 23:10:00,56.5,55.1,29.77,SE,142,0.0,2.0,95,0.00,,,0.00,Wunderground v.1.12,2013-11-18 04:10:00,
2013-11-17 23:20:00,56.5,55.1,29.76,SE,142,0.0,2.0,95,0.00,,,0.00,Wunderground v.1.12,2013-11-18 04:20:00,
2013-11-17 23:30:00,56.5,55.1,29.76,SE,142,1.0,2.0,95,0.00,,,0.00,Wunderground v.1.12,2013-11-18 04:30:00,
2013-11-17 23:40:00,56.6,55.2,29.75,SE,142,0.0,2.0,95,0.00,,,0.00,Wunderground v.1.12,2013-11-18 04:40:00,
2013-11-17 23:50:00,56.6,55.2,29.74,SE,142,0.0,2.0,95,0.00,,,0.00,Wunderground v.1.12,2013-11-18 04:50:00,